sensor_id;sensor_type;location;lat;lon;timestamp;temperature;humidity
29571;DHT22;16814;52.118;11.436;2022-10-22T00:01:22;11.20;99.90
29571;DHT22;16814;52.118;11.436;2022-10-22T00:03:49;11.40;99.90
29571;DHT22;16814;52.118;11.436;2022-10-22T00:06:14;11.70;99.90
29571;DHT22;16814;52.118;11.436;2022-10-22T00:08:40;11.90;99.90
29571;DHT22;16814;52.118;11.436;2022-10-22T00:11:13;11.80;99.90
29571;DHT22;16814;52.118;11.436;2022-10-22T00:13:40;12.00;99.90
29571;DHT22;16814;52.118;11.436;2022-10-22T00:16:05;12.20;99.90
29571;DHT22;16814;52.118;11.436;2022-10-22T00:18:31;12.20;99.90
29571;DHT22;16814;52.118;11.436;2022-10-22T00:20:57;12.20;99.90
29571;DHT22;16814;52.118;11.436;2022-10-22T00:23:23;12.30;99.90
29571;DHT22;16814;52.118;11.436;2022-10-22T00:25:48;12.30;99.90
29571;DHT22;16814;52.118;11.436;2022-10-22T00:28:14;12.30;99.90
29571;DHT22;16814;52.118;11.436;2022-10-22T00:30:39;12.40;99.90
29571;DHT22;16814;52.118;11.436;2022-10-22T00:33:05;12.50;99.90
29571;DHT22;16814;52.118;11.436;2022-10-22T00:35:31;12.70;99.90
29571;DHT22;16814;52.118;11.436;2022-10-22T00:37:57;12.70;99.90
29571;DHT22;16814;52.118;11.436;2022-10-22T00:40:22;12.70;99.90
29571;DHT22;16814;52.118;11.436;2022-10-22T00:42:48;12.70;99.90
29571;DHT22;16814;52.118;11.436;2022-10-22T00:45:17;12.70;99.90
29571;DHT22;16814;52.118;11.436;2022-10-22T00:47:53;12.60;99.90
29571;DHT22;16814;52.118;11.436;2022-10-22T00:50:26;12.60;99.90
29571;DHT22;16814;52.118;11.436;2022-10-22T00:52:53;12.50;99.90
29571;DHT22;16814;52.118;11.436;2022-10-22T00:55:19;12.50;99.90
29571;DHT22;16814;52.118;11.436;2022-10-22T00:57:46;12.50;99.90
29571;DHT22;16814;52.118;11.436;2022-10-22T01:00:12;12.60;99.90
29571;DHT22;16814;52.118;11.436;2022-10-22T01:02:38;12.50;99.90
29571;DHT22;16814;52.118;11.436;2022-10-22T01:05:04;12.50;99.90
29571;DHT22;16814;52.118;11.436;2022-10-22T01:07:30;12.50;99.90
29571;DHT22;16814;52.118;11.436;2022-10-22T01:10:23;12.60;99.90
29571;DHT22;16814;52.118;11.436;2022-10-22T01:18:47;12.80;99.90
29571;DHT22;16814;52.118;11.436;2022-10-22T01:21:35;12.80;99.90
29571;DHT22;16814;52.118;11.436;2022-10-22T01:27:14;12.80;99.90
29571;DHT22;16814;52.118;11.436;2022-10-22T01:29:52;12.80;99.90
29571;DHT22;16814;52.118;11.436;2022-10-22T01:32:22;12.70;99.90
29571;DHT22;16814;52.118;11.436;2022-10-22T01:34:59;12.80;99.90
29571;DHT22;16814;52.118;11.436;2022-10-22T01:37:28;12.80;99.90
29571;DHT22;16814;52.118;11.436;2022-10-22T01:39:56;12.60;99.90
29571;DHT22;16814;52.118;11.436;2022-10-22T01:42:23;12.70;99.90
29571;DHT22;16814;52.118;11.436;2022-10-22T01:44:49;12.70;99.90
29571;DHT22;16814;52.118;11.436;2022-10-22T01:47:29;12.70;99.90
29571;DHT22;16814;52.118;11.436;2022-10-22T01:50:22;12.70;99.90
29571;DHT22;16814;52.118;11.436;2022-10-22T01:55:43;12.80;99.90
29571;DHT22;16814;52.118;11.436;2022-10-22T01:58:31;13.00;99.90
29571;DHT22;16814;52.118;11.436;2022-10-22T02:01:07;12.80;99.90
29571;DHT22;16814;52.118;11.436;2022-10-22T02:03:41;12.90;99.90
29571;DHT22;16814;52.118;11.436;2022-10-22T02:06:13;13.00;99.90
29571;DHT22;16814;52.118;11.436;2022-10-22T02:08:41;13.10;99.90
29571;DHT22;16814;52.118;11.436;2022-10-22T02:11:07;13.20;99.90
29571;DHT22;16814;52.118;11.436;2022-10-22T02:13:47;13.20;99.90
29571;DHT22;16814;52.118;11.436;2022-10-22T02:16:20;13.20;99.90
29571;DHT22;16814;52.118;11.436;2022-10-22T02:18:48;13.20;99.90
29571;DHT22;16814;52.118;11.436;2022-10-22T02:21:15;13.20;99.90
29571;DHT22;16814;52.118;11.436;2022-10-22T02:23:41;13.20;99.90
29571;DHT22;16814;52.118;11.436;2022-10-22T02:26:15;13.30;99.90
29571;DHT22;16814;52.118;11.436;2022-10-22T02:28:59;13.20;99.90
29571;DHT22;16814;52.118;11.436;2022-10-22T02:31:30;13.30;99.90
29571;DHT22;16814;52.118;11.436;2022-10-22T02:34:01;13.60;99.90
29571;DHT22;16814;52.118;11.436;2022-10-22T02:36:29;13.30;99.90
29571;DHT22;16814;52.118;11.436;2022-10-22T02:38:55;13.30;99.90
29571;DHT22;16814;52.118;11.436;2022-10-22T02:41:22;13.30;99.90
29571;DHT22;16814;52.118;11.436;2022-10-22T02:43:53;13.30;99.90
29571;DHT22;16814;52.118;11.436;2022-10-22T02:46:19;13.10;99.90
29571;DHT22;16814;52.118;11.436;2022-10-22T02:48:44;13.10;99.90
29571;DHT22;16814;52.118;11.436;2022-10-22T02:51:10;13.10;99.90
29571;DHT22;16814;52.118;11.436;2022-10-22T02:53:35;13.20;99.90
29571;DHT22;16814;52.118;11.436;2022-10-22T02:56:01;13.20;99.90
29571;DHT22;16814;52.118;11.436;2022-10-22T02:58:26;13.10;99.90
29571;DHT22;16814;52.118;11.436;2022-10-22T03:00:52;13.10;99.90
29571;DHT22;16814;52.118;11.436;2022-10-22T03:03:17;13.20;99.90
29571;DHT22;16814;52.118;11.436;2022-10-22T03:05:43;13.10;99.90
29571;DHT22;16814;52.118;11.436;2022-10-22T03:08:08;13.10;99.90
29571;DHT22;16814;52.118;11.436;2022-10-22T03:10:34;13.10;99.90
29571;DHT22;16814;52.118;11.436;2022-10-22T03:12:59;13.10;99.90
29571;DHT22;16814;52.118;11.436;2022-10-22T03:15:25;13.10;99.90
29571;DHT22;16814;52.118;11.436;2022-10-22T03:17:50;13.10;99.90
29571;DHT22;16814;52.118;11.436;2022-10-22T03:20:16;13.00;99.90
29571;DHT22;16814;52.118;11.436;2022-10-22T03:22:42;12.70;99.90
29571;DHT22;16814;52.118;11.436;2022-10-22T03:25:12;12.20;99.90
29571;DHT22;16814;52.118;11.436;2022-10-22T03:27:39;12.40;99.90
29571;DHT22;16814;52.118;11.436;2022-10-22T03:30:06;12.30;99.90
29571;DHT22;16814;52.118;11.436;2022-10-22T03:32:32;12.60;99.90
29571;DHT22;16814;52.118;11.436;2022-10-22T03:34:57;12.60;99.90
29571;DHT22;16814;52.118;11.436;2022-10-22T03:37:24;12.70;99.90
29571;DHT22;16814;52.118;11.436;2022-10-22T03:39:50;12.70;99.90
29571;DHT22;16814;52.118;11.436;2022-10-22T03:42:16;12.70;99.90
29571;DHT22;16814;52.118;11.436;2022-10-22T03:44:42;12.80;99.90
29571;DHT22;16814;52.118;11.436;2022-10-22T03:47:08;13.00;99.90
29571;DHT22;16814;52.118;11.436;2022-10-22T03:49:34;13.10;99.90
29571;DHT22;16814;52.118;11.436;2022-10-22T03:52:10;13.20;99.90
29571;DHT22;16814;52.118;11.436;2022-10-22T03:54:36;13.20;99.90
29571;DHT22;16814;52.118;11.436;2022-10-22T03:57:03;13.10;99.90
29571;DHT22;16814;52.118;11.436;2022-10-22T03:59:43;13.20;99.90
29571;DHT22;16814;52.118;11.436;2022-10-22T04:02:09;13.20;99.90
29571;DHT22;16814;52.118;11.436;2022-10-22T04:04:35;13.20;99.90
29571;DHT22;16814;52.118;11.436;2022-10-22T04:07:01;13.20;99.90
29571;DHT22;16814;52.118;11.436;2022-10-22T04:09:30;13.20;99.90
29571;DHT22;16814;52.118;11.436;2022-10-22T04:11:57;13.30;99.90
29571;DHT22;16814;52.118;11.436;2022-10-22T04:14:22;13.40;99.90
29571;DHT22;16814;52.118;11.436;2022-10-22T04:16:48;13.30;99.90
29571;DHT22;16814;52.118;11.436;2022-10-22T04:19:13;13.30;99.90
29571;DHT22;16814;52.118;11.436;2022-10-22T04:21:39;13.40;99.90
29571;DHT22;16814;52.118;11.436;2022-10-22T04:24:04;13.40;99.90
29571;DHT22;16814;52.118;11.436;2022-10-22T04:26:30;13.40;99.90
29571;DHT22;16814;52.118;11.436;2022-10-22T04:28:55;13.30;99.90
29571;DHT22;16814;52.118;11.436;2022-10-22T04:31:23;13.30;99.90
29571;DHT22;16814;52.118;11.436;2022-10-22T04:33:58;13.20;99.90
29571;DHT22;16814;52.118;11.436;2022-10-22T04:36:24;13.40;99.90
29571;DHT22;16814;52.118;11.436;2022-10-22T04:38:58;13.30;99.90
29571;DHT22;16814;52.118;11.436;2022-10-22T04:41:29;13.30;99.90
29571;DHT22;16814;52.118;11.436;2022-10-22T04:43:56;13.40;99.90
29571;DHT22;16814;52.118;11.436;2022-10-22T04:46:22;13.40;99.90
29571;DHT22;16814;52.118;11.436;2022-10-22T04:48:50;13.40;99.90
29571;DHT22;16814;52.118;11.436;2022-10-22T04:51:18;13.50;99.90
29571;DHT22;16814;52.118;11.436;2022-10-22T04:53:44;13.60;99.90
29571;DHT22;16814;52.118;11.436;2022-10-22T04:58:51;13.60;99.90
29571;DHT22;16814;52.118;11.436;2022-10-22T05:01:19;13.60;99.90
29571;DHT22;16814;52.118;11.436;2022-10-22T05:03:45;13.50;99.90
29571;DHT22;16814;52.118;11.436;2022-10-22T05:06:12;13.70;99.90
29571;DHT22;16814;52.118;11.436;2022-10-22T05:08:38;13.70;99.90
29571;DHT22;16814;52.118;11.436;2022-10-22T05:11:18;13.60;99.90
29571;DHT22;16814;52.118;11.436;2022-10-22T05:13:45;13.60;99.90
29571;DHT22;16814;52.118;11.436;2022-10-22T05:16:11;13.70;99.90
29571;DHT22;16814;52.118;11.436;2022-10-22T05:18:38;13.60;99.90
29571;DHT22;16814;52.118;11.436;2022-10-22T05:21:07;13.60;99.90
29571;DHT22;16814;52.118;11.436;2022-10-22T05:23:34;13.70;99.90
29571;DHT22;16814;52.118;11.436;2022-10-22T05:26:03;13.60;99.90
29571;DHT22;16814;52.118;11.436;2022-10-22T05:28:30;13.80;99.90
29571;DHT22;16814;52.118;11.436;2022-10-22T05:30:57;13.50;99.90
29571;DHT22;16814;52.118;11.436;2022-10-22T05:33:24;13.40;99.90
29571;DHT22;16814;52.118;11.436;2022-10-22T05:35:50;13.30;99.90
29571;DHT22;16814;52.118;11.436;2022-10-22T05:38:16;13.20;99.90
29571;DHT22;16814;52.118;11.436;2022-10-22T05:40:42;13.30;99.90
29571;DHT22;16814;52.118;11.436;2022-10-22T05:43:07;13.40;99.90
29571;DHT22;16814;52.118;11.436;2022-10-22T05:45:40;13.40;99.90
29571;DHT22;16814;52.118;11.436;2022-10-22T05:48:07;13.30;99.90
29571;DHT22;16814;52.118;11.436;2022-10-22T05:50:37;13.30;99.90
29571;DHT22;16814;52.118;11.436;2022-10-22T05:53:04;13.50;99.90
29571;DHT22;16814;52.118;11.436;2022-10-22T05:55:30;13.50;99.90
29571;DHT22;16814;52.118;11.436;2022-10-22T05:57:55;13.50;99.90
29571;DHT22;16814;52.118;11.436;2022-10-22T06:00:21;13.50;99.90
29571;DHT22;16814;52.118;11.436;2022-10-22T06:02:50;13.50;99.90
29571;DHT22;16814;52.118;11.436;2022-10-22T06:05:15;13.40;99.90
29571;DHT22;16814;52.118;11.436;2022-10-22T06:07:41;13.50;99.90
29571;DHT22;16814;52.118;11.436;2022-10-22T06:10:13;13.30;99.90
29571;DHT22;16814;52.118;11.436;2022-10-22T06:12:39;13.20;99.90
29571;DHT22;16814;52.118;11.436;2022-10-22T06:15:05;13.10;99.90
29571;DHT22;16814;52.118;11.436;2022-10-22T06:17:31;13.10;99.90
29571;DHT22;16814;52.118;11.436;2022-10-22T06:19:57;13.10;99.90
29571;DHT22;16814;52.118;11.436;2022-10-22T06:22:22;13.10;99.90
29571;DHT22;16814;52.118;11.436;2022-10-22T06:24:48;13.10;99.90
29571;DHT22;16814;52.118;11.436;2022-10-22T06:27:13;13.20;99.90
29571;DHT22;16814;52.118;11.436;2022-10-22T06:29:39;13.10;99.90
29571;DHT22;16814;52.118;11.436;2022-10-22T06:32:04;13.30;99.90
29571;DHT22;16814;52.118;11.436;2022-10-22T06:34:30;13.30;99.90
29571;DHT22;16814;52.118;11.436;2022-10-22T06:36:55;13.40;99.90
29571;DHT22;16814;52.118;11.436;2022-10-22T06:39:21;13.30;99.90
29571;DHT22;16814;52.118;11.436;2022-10-22T06:41:46;13.40;99.90
29571;DHT22;16814;52.118;11.436;2022-10-22T06:44:14;13.40;99.90
29571;DHT22;16814;52.118;11.436;2022-10-22T06:46:40;13.40;99.90
29571;DHT22;16814;52.118;11.436;2022-10-22T06:49:05;13.40;99.90
29571;DHT22;16814;52.118;11.436;2022-10-22T06:51:31;13.40;99.90
29571;DHT22;16814;52.118;11.436;2022-10-22T06:53:57;13.40;99.90
29571;DHT22;16814;52.118;11.436;2022-10-22T06:56:24;13.40;99.90
29571;DHT22;16814;52.118;11.436;2022-10-22T06:58:51;13.40;99.90
29571;DHT22;16814;52.118;11.436;2022-10-22T07:01:19;13.40;99.90
29571;DHT22;16814;52.118;11.436;2022-10-22T07:03:45;13.50;99.90
29571;DHT22;16814;52.118;11.436;2022-10-22T07:06:13;13.40;99.90
29571;DHT22;16814;52.118;11.436;2022-10-22T07:08:39;13.40;99.90
29571;DHT22;16814;52.118;11.436;2022-10-22T07:11:14;13.20;99.90
29571;DHT22;16814;52.118;11.436;2022-10-22T07:13:40;13.30;99.90
29571;DHT22;16814;52.118;11.436;2022-10-22T07:16:07;13.30;99.90
29571;DHT22;16814;52.118;11.436;2022-10-22T07:18:33;13.40;99.90
29571;DHT22;16814;52.118;11.436;2022-10-22T07:21:00;13.40;99.90
29571;DHT22;16814;52.118;11.436;2022-10-22T07:23:26;13.40;99.90
29571;DHT22;16814;52.118;11.436;2022-10-22T07:25:51;13.40;99.90
29571;DHT22;16814;52.118;11.436;2022-10-22T07:28:17;13.40;99.90
29571;DHT22;16814;52.118;11.436;2022-10-22T07:30:43;13.30;99.90
29571;DHT22;16814;52.118;11.436;2022-10-22T07:33:09;13.40;99.90
29571;DHT22;16814;52.118;11.436;2022-10-22T07:35:38;13.40;99.90
29571;DHT22;16814;52.118;11.436;2022-10-22T07:38:05;13.40;99.90
29571;DHT22;16814;52.118;11.436;2022-10-22T07:40:32;13.50;99.90
29571;DHT22;16814;52.118;11.436;2022-10-22T07:42:57;13.70;99.90
29571;DHT22;16814;52.118;11.436;2022-10-22T07:45:23;13.60;99.90
29571;DHT22;16814;52.118;11.436;2022-10-22T07:47:49;13.70;99.90
29571;DHT22;16814;52.118;11.436;2022-10-22T07:50:15;13.70;99.90
29571;DHT22;16814;52.118;11.436;2022-10-22T07:52:41;13.70;99.90
29571;DHT22;16814;52.118;11.436;2022-10-22T07:55:07;13.70;99.90
29571;DHT22;16814;52.118;11.436;2022-10-22T07:57:33;13.70;99.90
29571;DHT22;16814;52.118;11.436;2022-10-22T07:59:59;13.70;99.90
29571;DHT22;16814;52.118;11.436;2022-10-22T08:02:25;14.00;99.90
29571;DHT22;16814;52.118;11.436;2022-10-22T08:04:50;13.90;99.90
29571;DHT22;16814;52.118;11.436;2022-10-22T08:07:17;13.90;99.90
29571;DHT22;16814;52.118;11.436;2022-10-22T08:09:42;13.90;99.90
29571;DHT22;16814;52.118;11.436;2022-10-22T08:12:08;14.00;99.90
29571;DHT22;16814;52.118;11.436;2022-10-22T08:14:34;14.00;99.90
29571;DHT22;16814;52.118;11.436;2022-10-22T08:16:59;14.00;99.90
29571;DHT22;16814;52.118;11.436;2022-10-22T08:19:25;14.00;99.90
29571;DHT22;16814;52.118;11.436;2022-10-22T08:21:53;14.00;99.90
29571;DHT22;16814;52.118;11.436;2022-10-22T08:24:18;14.10;99.90
29571;DHT22;16814;52.118;11.436;2022-10-22T08:26:44;13.90;99.90
29571;DHT22;16814;52.118;11.436;2022-10-22T08:29:10;14.20;99.90
29571;DHT22;16814;52.118;11.436;2022-10-22T08:31:36;14.20;99.90
29571;DHT22;16814;52.118;11.436;2022-10-22T08:34:02;14.20;99.90
29571;DHT22;16814;52.118;11.436;2022-10-22T08:36:30;14.50;99.90
29571;DHT22;16814;52.118;11.436;2022-10-22T08:38:55;14.20;99.90
29571;DHT22;16814;52.118;11.436;2022-10-22T08:41:22;14.10;99.90
29571;DHT22;16814;52.118;11.436;2022-10-22T08:49:46;14.10;99.90
29571;DHT22;16814;52.118;11.436;2022-10-22T08:52:16;14.20;99.90
29571;DHT22;16814;52.118;11.436;2022-10-22T08:54:50;14.10;99.90
29571;DHT22;16814;52.118;11.436;2022-10-22T09:03:23;15.20;99.90
29571;DHT22;16814;52.118;11.436;2022-10-22T09:08:09;16.10;99.90
29571;DHT22;16814;52.118;11.436;2022-10-22T09:10:37;16.50;99.90
29571;DHT22;16814;52.118;11.436;2022-10-22T09:13:04;16.90;99.90
29571;DHT22;16814;52.118;11.436;2022-10-22T09:15:29;17.10;99.90
29571;DHT22;16814;52.118;11.436;2022-10-22T09:18:27;17.20;99.90
29571;DHT22;16814;52.118;11.436;2022-10-22T09:21:02;17.20;99.90
29571;DHT22;16814;52.118;11.436;2022-10-22T09:23:48;17.10;99.90
29571;DHT22;16814;52.118;11.436;2022-10-22T09:26:15;17.00;99.90
29571;DHT22;16814;52.118;11.436;2022-10-22T09:28:41;16.70;99.90
29571;DHT22;16814;52.118;11.436;2022-10-22T09:31:10;16.60;99.90
29571;DHT22;16814;52.118;11.436;2022-10-22T09:33:37;16.80;99.90
29571;DHT22;16814;52.118;11.436;2022-10-22T09:36:03;17.10;99.90
29571;DHT22;16814;52.118;11.436;2022-10-22T09:38:33;17.50;99.90
29571;DHT22;16814;52.118;11.436;2022-10-22T09:41:03;17.80;99.90
29571;DHT22;16814;52.118;11.436;2022-10-22T09:43:29;18.10;99.90
29571;DHT22;16814;52.118;11.436;2022-10-22T09:46:00;18.50;99.90
29571;DHT22;16814;52.118;11.436;2022-10-22T09:48:35;18.70;99.90
29571;DHT22;16814;52.118;11.436;2022-10-22T09:51:22;19.00;99.90
29571;DHT22;16814;52.118;11.436;2022-10-22T09:53:56;19.00;99.90
29571;DHT22;16814;52.118;11.436;2022-10-22T09:56:34;19.20;99.90
29571;DHT22;16814;52.118;11.436;2022-10-22T09:59:00;19.30;99.90
29571;DHT22;16814;52.118;11.436;2022-10-22T10:01:34;19.40;99.90
29571;DHT22;16814;52.118;11.436;2022-10-22T10:04:05;19.20;99.90
29571;DHT22;16814;52.118;11.436;2022-10-22T10:06:33;19.30;99.90
29571;DHT22;16814;52.118;11.436;2022-10-22T10:08:59;19.40;99.90
29571;DHT22;16814;52.118;11.436;2022-10-22T10:11:39;19.80;99.90
29571;DHT22;16814;52.118;11.436;2022-10-22T10:14:08;19.90;99.90
29571;DHT22;16814;52.118;11.436;2022-10-22T10:16:44;19.70;99.90
29571;DHT22;16814;52.118;11.436;2022-10-22T10:19:49;19.80;99.90
29571;DHT22;16814;52.118;11.436;2022-10-22T10:25:35;20.20;99.90
29571;DHT22;16814;52.118;11.436;2022-10-22T10:28:44;20.20;99.90
29571;DHT22;16814;52.118;11.436;2022-10-22T10:31:44;20.30;99.90
29571;DHT22;16814;52.118;11.436;2022-10-22T10:37:14;20.40;99.90
29571;DHT22;16814;52.118;11.436;2022-10-22T10:45:36;20.50;99.90
29571;DHT22;16814;52.118;11.436;2022-10-22T10:50:48;20.40;99.90
29571;DHT22;16814;52.118;11.436;2022-10-22T10:56:23;20.40;99.90
29571;DHT22;16814;52.118;11.436;2022-10-22T11:07:32;20.50;99.90
29571;DHT22;16814;52.118;11.436;2022-10-22T11:10:04;20.50;99.90
29571;DHT22;16814;52.118;11.436;2022-10-22T11:12:37;20.30;99.90
29571;DHT22;16814;52.118;11.436;2022-10-22T11:15:28;20.50;99.90
29571;DHT22;16814;52.118;11.436;2022-10-22T11:18:15;20.20;99.90
29571;DHT22;16814;52.118;11.436;2022-10-22T11:21:06;20.20;99.90
29571;DHT22;16814;52.118;11.436;2022-10-22T11:26:08;20.60;99.90
29571;DHT22;16814;52.118;11.436;2022-10-22T11:28:43;20.40;99.90
29571;DHT22;16814;52.118;11.436;2022-10-22T11:31:13;20.50;99.90
29571;DHT22;16814;52.118;11.436;2022-10-22T11:33:48;20.70;99.90
29571;DHT22;16814;52.118;11.436;2022-10-22T11:36:19;20.60;99.90
29571;DHT22;16814;52.118;11.436;2022-10-22T11:38:45;20.40;99.90
29571;DHT22;16814;52.118;11.436;2022-10-22T11:41:13;20.30;99.90
29571;DHT22;16814;52.118;11.436;2022-10-22T11:44:09;20.30;99.90
29571;DHT22;16814;52.118;11.436;2022-10-22T11:46:45;20.20;99.90
29571;DHT22;16814;52.118;11.436;2022-10-22T11:49:40;20.10;99.90
29571;DHT22;16814;52.118;11.436;2022-10-22T11:54:55;19.90;99.90
29571;DHT22;16814;52.118;11.436;2022-10-22T11:57:27;20.00;99.90
29571;DHT22;16814;52.118;11.436;2022-10-22T11:59:59;19.90;99.90
29571;DHT22;16814;52.118;11.436;2022-10-22T12:14:00;19.50;99.90
29571;DHT22;16814;52.118;11.436;2022-10-22T12:16:34;19.40;99.90
29571;DHT22;16814;52.118;11.436;2022-10-22T12:19:04;19.70;99.90
29571;DHT22;16814;52.118;11.436;2022-10-22T12:21:32;19.70;99.90
29571;DHT22;16814;52.118;11.436;2022-10-22T12:23:59;19.40;99.90
29571;DHT22;16814;52.118;11.436;2022-10-22T12:26:30;19.70;99.90
29571;DHT22;16814;52.118;11.436;2022-10-22T12:29:00;19.60;99.90
29571;DHT22;16814;52.118;11.436;2022-10-22T12:31:27;19.60;99.90
29571;DHT22;16814;52.118;11.436;2022-10-22T12:33:59;19.70;99.90
29571;DHT22;16814;52.118;11.436;2022-10-22T12:36:26;19.70;99.90
29571;DHT22;16814;52.118;11.436;2022-10-22T12:38:52;19.70;99.90
29571;DHT22;16814;52.118;11.436;2022-10-22T12:41:20;19.60;99.90
29571;DHT22;16814;52.118;11.436;2022-10-22T12:43:46;19.50;99.90
29571;DHT22;16814;52.118;11.436;2022-10-22T12:46:14;19.50;99.90
29571;DHT22;16814;52.118;11.436;2022-10-22T12:48:43;19.50;99.90
29571;DHT22;16814;52.118;11.436;2022-10-22T12:51:15;19.50;99.90
29571;DHT22;16814;52.118;11.436;2022-10-22T12:53:52;19.60;99.90
29571;DHT22;16814;52.118;11.436;2022-10-22T12:56:24;19.60;99.90
29571;DHT22;16814;52.118;11.436;2022-10-22T12:59:01;19.60;99.90
29571;DHT22;16814;52.118;11.436;2022-10-22T13:01:36;19.50;99.90
29571;DHT22;16814;52.118;11.436;2022-10-22T13:04:29;19.40;99.90
29571;DHT22;16814;52.118;11.436;2022-10-22T13:09:58;19.20;99.90
29571;DHT22;16814;52.118;11.436;2022-10-22T13:12:27;19.20;99.90
29571;DHT22;16814;52.118;11.436;2022-10-22T13:14:54;19.10;99.90
29571;DHT22;16814;52.118;11.436;2022-10-22T13:17:37;19.10;99.90
29571;DHT22;16814;52.118;11.436;2022-10-22T13:20:25;19.20;99.90
29571;DHT22;16814;52.118;11.436;2022-10-22T13:23:16;19.10;99.90
29571;DHT22;16814;52.118;11.436;2022-10-22T13:25:43;19.10;99.90
29571;DHT22;16814;52.118;11.436;2022-10-22T13:28:15;19.00;99.90
29571;DHT22;16814;52.118;11.436;2022-10-22T13:30:52;19.00;99.90
29571;DHT22;16814;52.118;11.436;2022-10-22T13:33:24;18.80;99.90
29571;DHT22;16814;52.118;11.436;2022-10-22T13:35:51;18.60;99.90
29571;DHT22;16814;52.118;11.436;2022-10-22T13:38:19;18.60;99.90
29571;DHT22;16814;52.118;11.436;2022-10-22T13:40:46;18.40;99.90
29571;DHT22;16814;52.118;11.436;2022-10-22T13:43:12;18.40;99.90
29571;DHT22;16814;52.118;11.436;2022-10-22T13:45:37;18.40;99.90
29571;DHT22;16814;52.118;11.436;2022-10-22T13:48:03;18.40;99.90
29571;DHT22;16814;52.118;11.436;2022-10-22T13:50:28;18.40;99.90
29571;DHT22;16814;52.118;11.436;2022-10-22T13:52:55;18.40;99.90
29571;DHT22;16814;52.118;11.436;2022-10-22T13:55:29;18.40;99.90
29571;DHT22;16814;52.118;11.436;2022-10-22T13:58:05;18.50;99.90
29571;DHT22;16814;52.118;11.436;2022-10-22T14:00:31;18.50;99.90
29571;DHT22;16814;52.118;11.436;2022-10-22T14:02:58;18.50;99.90
29571;DHT22;16814;52.118;11.436;2022-10-22T14:05:24;18.40;99.90
29571;DHT22;16814;52.118;11.436;2022-10-22T14:07:50;18.50;99.90
29571;DHT22;16814;52.118;11.436;2022-10-22T14:10:21;18.60;99.90
29571;DHT22;16814;52.118;11.436;2022-10-22T14:12:48;18.70;99.90
29571;DHT22;16814;52.118;11.436;2022-10-22T14:15:16;18.80;99.90
29571;DHT22;16814;52.118;11.436;2022-10-22T14:17:47;18.80;99.90
29571;DHT22;16814;52.118;11.436;2022-10-22T14:20:28;18.80;99.90
29571;DHT22;16814;52.118;11.436;2022-10-22T14:22:55;18.80;99.90
29571;DHT22;16814;52.118;11.436;2022-10-22T14:25:23;18.80;99.90
29571;DHT22;16814;52.118;11.436;2022-10-22T14:27:48;18.80;99.90
29571;DHT22;16814;52.118;11.436;2022-10-22T14:30:21;18.70;99.90
29571;DHT22;16814;52.118;11.436;2022-10-22T14:32:47;18.70;99.90
29571;DHT22;16814;52.118;11.436;2022-10-22T14:35:16;18.60;99.90
29571;DHT22;16814;52.118;11.436;2022-10-22T14:37:42;18.60;99.90
29571;DHT22;16814;52.118;11.436;2022-10-22T14:40:11;18.70;99.90
29571;DHT22;16814;52.118;11.436;2022-10-22T14:42:42;18.50;99.90
29571;DHT22;16814;52.118;11.436;2022-10-22T14:45:21;18.50;99.90
29571;DHT22;16814;52.118;11.436;2022-10-22T14:48:02;18.40;99.90
29571;DHT22;16814;52.118;11.436;2022-10-22T14:50:28;18.40;99.90
29571;DHT22;16814;52.118;11.436;2022-10-22T14:52:53;18.40;99.90
29571;DHT22;16814;52.118;11.436;2022-10-22T14:55:21;18.40;99.90
29571;DHT22;16814;52.118;11.436;2022-10-22T14:57:46;18.40;99.90
29571;DHT22;16814;52.118;11.436;2022-10-22T15:00:15;18.50;99.90
29571;DHT22;16814;52.118;11.436;2022-10-22T15:02:40;18.40;99.90
29571;DHT22;16814;52.118;11.436;2022-10-22T15:05:06;18.40;99.90
29571;DHT22;16814;52.118;11.436;2022-10-22T15:07:32;18.30;99.90
29571;DHT22;16814;52.118;11.436;2022-10-22T15:09:58;18.40;99.90
29571;DHT22;16814;52.118;11.436;2022-10-22T15:12:24;18.20;99.90
29571;DHT22;16814;52.118;11.436;2022-10-22T15:14:50;18.10;99.90
29571;DHT22;16814;52.118;11.436;2022-10-22T15:17:16;18.10;99.90
29571;DHT22;16814;52.118;11.436;2022-10-22T15:19:47;18.10;99.90
29571;DHT22;16814;52.118;11.436;2022-10-22T15:22:18;18.10;99.90
29571;DHT22;16814;52.118;11.436;2022-10-22T15:24:43;18.00;99.90
29571;DHT22;16814;52.118;11.436;2022-10-22T15:27:12;18.00;99.90
29571;DHT22;16814;52.118;11.436;2022-10-22T15:29:39;18.00;99.90
29571;DHT22;16814;52.118;11.436;2022-10-22T15:32:04;17.90;99.90
29571;DHT22;16814;52.118;11.436;2022-10-22T15:34:34;17.90;99.90
29571;DHT22;16814;52.118;11.436;2022-10-22T15:37:02;17.80;99.90
29571;DHT22;16814;52.118;11.436;2022-10-22T15:39:29;17.70;99.90
29571;DHT22;16814;52.118;11.436;2022-10-22T15:41:55;17.50;99.90
29571;DHT22;16814;52.118;11.436;2022-10-22T15:44:26;17.40;99.90
29571;DHT22;16814;52.118;11.436;2022-10-22T15:46:52;17.50;99.90
29571;DHT22;16814;52.118;11.436;2022-10-22T15:49:22;17.30;99.90
29571;DHT22;16814;52.118;11.436;2022-10-22T15:51:48;17.20;99.90
29571;DHT22;16814;52.118;11.436;2022-10-22T15:54:15;17.10;99.90
29571;DHT22;16814;52.118;11.436;2022-10-22T15:56:43;17.00;99.90
29571;DHT22;16814;52.118;11.436;2022-10-22T15:59:09;17.00;99.90
29571;DHT22;16814;52.118;11.436;2022-10-22T16:01:35;16.90;99.90
29571;DHT22;16814;52.118;11.436;2022-10-22T16:04:01;16.80;99.90
29571;DHT22;16814;52.118;11.436;2022-10-22T16:06:35;16.50;99.90
29571;DHT22;16814;52.118;11.436;2022-10-22T16:09:03;16.60;99.90
29571;DHT22;16814;52.118;11.436;2022-10-22T16:11:29;16.60;99.90
29571;DHT22;16814;52.118;11.436;2022-10-22T16:13:56;16.40;99.90
29571;DHT22;16814;52.118;11.436;2022-10-22T16:16:23;16.40;99.90
29571;DHT22;16814;52.118;11.436;2022-10-22T16:18:49;16.20;99.90
29571;DHT22;16814;52.118;11.436;2022-10-22T16:21:16;16.40;99.90
29571;DHT22;16814;52.118;11.436;2022-10-22T16:23:42;16.40;99.90
29571;DHT22;16814;52.118;11.436;2022-10-22T16:26:08;16.40;99.90
29571;DHT22;16814;52.118;11.436;2022-10-22T16:28:34;16.40;99.90
29571;DHT22;16814;52.118;11.436;2022-10-22T16:31:04;16.40;99.90
29571;DHT22;16814;52.118;11.436;2022-10-22T16:33:30;16.40;99.90
29571;DHT22;16814;52.118;11.436;2022-10-22T16:35:56;16.50;99.90
29571;DHT22;16814;52.118;11.436;2022-10-22T16:38:23;16.60;99.90
29571;DHT22;16814;52.118;11.436;2022-10-22T16:40:48;16.50;99.90
29571;DHT22;16814;52.118;11.436;2022-10-22T16:43:15;16.40;99.90